createdAt,value
2023-03-31T00:02:14.034Z,8.55
2023-03-31T00:04:46.453Z,8.70
2023-03-31T00:07:14.771Z,9.20
2023-03-31T00:09:46.229Z,7.82
2023-03-31T00:12:16.729Z,8.50
2023-03-31T00:14:43.886Z,8.18
2023-03-31T00:17:11.560Z,8.65
2023-03-31T00:19:40.229Z,8.98
2023-03-31T00:22:07.158Z,9.38
2023-03-31T00:24:34.306Z,8.77
2023-03-31T00:27:04.520Z,8.25
2023-03-31T00:29:33.644Z,7.35
2023-03-31T00:32:00.556Z,8.82
2023-03-31T00:34:28.044Z,8.48
2023-03-31T00:36:56.836Z,8.10
2023-03-31T00:39:28.125Z,8.43
2023-03-31T00:41:54.872Z,7.75
2023-03-31T00:44:25.581Z,7.70
2023-03-31T00:46:55.962Z,8.43
2023-03-31T00:49:30.208Z,8.20
2023-03-31T00:52:08.440Z,7.43
2023-03-31T00:54:35.777Z,8.20
2023-03-31T00:57:03.734Z,7.55
2023-03-31T00:59:31.749Z,7.30
2023-03-31T01:01:59.348Z,6.97
2023-03-31T01:04:26.536Z,7.50
2023-03-31T01:07:04.030Z,7.90
2023-03-31T01:09:35.005Z,7.05
2023-03-31T01:12:03.588Z,7.50
2023-03-31T01:14:31.364Z,7.07
2023-03-31T01:16:58.189Z,8.13
2023-03-31T01:20:01.943Z,8.25
2023-03-31T01:22:53.114Z,8.18
2023-03-31T01:25:38.765Z,8.27
2023-03-31T01:28:23.481Z,7.68
2023-03-31T01:31:23.058Z,7.63
2023-03-31T01:34:27.587Z,7.03
2023-03-31T01:37:14.824Z,8.55
2023-03-31T01:40:28.725Z,8.10
2023-03-31T01:42:59.698Z,8.02
2023-03-31T01:45:28.243Z,7.00
2023-03-31T01:48:03.077Z,7.30
2023-03-31T01:51:03.525Z,8.50
2023-03-31T01:53:34.879Z,8.82
2023-03-31T01:56:16.180Z,8.30
2023-03-31T01:58:47.782Z,7.97
2023-03-31T02:01:22.512Z,8.18
2023-03-31T02:03:54.233Z,8.27
2023-03-31T02:06:24.549Z,8.23
2023-03-31T02:08:57.456Z,8.38
2023-03-31T02:11:24.360Z,7.60
2023-03-31T02:13:52.623Z,8.38
2023-03-31T02:16:24.549Z,7.75
2023-03-31T02:18:53.932Z,8.50
2023-03-31T02:21:20.694Z,7.65
2023-03-31T02:23:47.728Z,7.93
2023-03-31T02:26:25.139Z,8.27
2023-03-31T02:28:52.243Z,7.60
2023-03-31T02:32:00.966Z,7.65
2023-03-31T02:34:28.181Z,7.47
2023-03-31T02:36:54.944Z,7.82
2023-03-31T02:39:25.614Z,8.00
2023-03-31T02:41:52.369Z,8.70
2023-03-31T02:44:19.478Z,7.70
2023-03-31T02:46:46.294Z,7.25
2023-03-31T02:49:13.467Z,8.30
2023-03-31T02:51:46.917Z,8.07
2023-03-31T02:54:35.311Z,7.40
2023-03-31T02:57:12.460Z,8.05
2023-03-31T02:59:58.251Z,7.82
2023-03-31T03:02:31.045Z,8.63
2023-03-31T03:05:27.476Z,7.28
2023-03-31T03:08:32.126Z,7.88
2023-03-31T03:11:08.040Z,7.82
2023-03-31T03:13:48.049Z,8.13
2023-03-31T03:16:24.782Z,7.50
2023-03-31T03:18:59.153Z,7.63
2023-03-31T03:21:26.649Z,7.43
2023-03-31T03:23:53.584Z,6.82
2023-03-31T03:26:24.480Z,7.15
2023-03-31T03:28:51.442Z,7.10
2023-03-31T03:31:19.463Z,6.60
2023-03-31T03:33:46.554Z,6.70
2023-03-31T03:36:13.798Z,7.50
2023-03-31T03:38:40.754Z,7.13
2023-03-31T03:41:07.837Z,6.10
2023-03-31T03:43:34.600Z,7.18
2023-03-31T03:46:01.905Z,6.55
2023-03-31T03:48:28.730Z,6.25
2023-03-31T03:50:55.928Z,7.97
2023-03-31T03:53:22.680Z,6.13
2023-03-31T03:55:49.840Z,6.45
2023-03-31T03:58:17.299Z,6.22
2023-03-31T04:00:45.408Z,6.45
2023-03-31T04:03:13.072Z,6.75
2023-03-31T04:05:40.258Z,6.70
2023-03-31T04:08:08.500Z,7.53
2023-03-31T04:10:35.956Z,7.68
2023-03-31T04:13:03.079Z,7.00
2023-03-31T04:15:30.246Z,7.82
2023-03-31T04:17:58.214Z,7.68
2023-03-31T04:20:31.580Z,7.68
2023-03-31T04:22:58.296Z,7.88
2023-03-31T04:25:25.456Z,8.30
2023-03-31T04:27:55.619Z,7.25
2023-03-31T04:30:30.769Z,8.35
2023-03-31T04:32:59.442Z,7.65
2023-03-31T04:35:28.226Z,7.72
2023-03-31T04:38:02.602Z,7.82
2023-03-31T04:40:29.749Z,7.82
2023-03-31T04:42:56.490Z,7.63
2023-03-31T04:45:23.586Z,7.65
2023-03-31T04:47:50.366Z,8.48
2023-03-31T04:50:17.698Z,8.45
2023-03-31T04:52:44.826Z,7.63
2023-03-31T04:55:11.928Z,8.80
2023-03-31T04:57:38.704Z,7.88
2023-03-31T05:00:09.218Z,7.72
2023-03-31T05:02:36.134Z,8.25
2023-03-31T05:05:04.545Z,8.43
2023-03-31T05:07:31.599Z,9.15
2023-03-31T05:09:58.726Z,9.00
2023-03-31T05:12:25.986Z,7.97
2023-03-31T05:14:53.112Z,8.60
2023-03-31T05:17:19.883Z,9.05
2023-03-31T05:19:46.922Z,9.23
2023-03-31T05:22:13.706Z,8.52
2023-03-31T05:24:40.726Z,9.10
2023-03-31T05:27:07.558Z,8.43
2023-03-31T05:29:34.723Z,8.65
2023-03-31T05:32:01.741Z,8.43
2023-03-31T05:34:28.997Z,7.53
2023-03-31T05:36:55.893Z,8.55
2023-03-31T05:39:22.986Z,8.27
2023-03-31T05:41:49.754Z,8.15
2023-03-31T05:44:16.958Z,7.97
2023-03-31T05:46:44.167Z,8.77
2023-03-31T05:49:11.971Z,9.02
2023-03-31T05:51:38.725Z,9.27
2023-03-31T05:54:06.505Z,8.07
2023-03-31T05:56:33.684Z,7.57
2023-03-31T05:59:01.390Z,8.05
2023-03-31T06:01:30.195Z,7.82
2023-03-31T06:03:57.447Z,7.82
2023-03-31T06:06:25.427Z,8.98
2023-03-31T06:08:52.649Z,18.23
2023-03-31T06:11:21.055Z,17.50
2023-03-31T06:13:48.654Z,17.25
2023-03-31T06:16:17.213Z,17.67
2023-03-31T06:18:44.472Z,16.70
2023-03-31T06:21:16.694Z,17.75
2023-03-31T06:23:47.132Z,19.23
2023-03-31T06:26:15.712Z,20.05
2023-03-31T06:28:43.574Z,18.85
2023-03-31T06:31:14.782Z,18.15
2023-03-31T06:34:21.578Z,19.15
2023-03-31T06:39:21.657Z,17.02
2023-03-31T06:41:48.471Z,14.98
2023-03-31T06:44:19.380Z,15.65
2023-03-31T06:46:46.273Z,14.10
2023-03-31T06:49:13.518Z,14.02
2023-03-31T06:51:40.564Z,14.68
2023-03-31T06:54:07.638Z,13.48
2023-03-31T06:56:34.634Z,13.73
2023-03-31T06:59:01.710Z,13.40
2023-03-31T07:01:28.533Z,12.70
2023-03-31T07:03:55.886Z,12.85
2023-03-31T07:06:53.766Z,11.38
2023-03-31T07:09:23.473Z,11.23
2023-03-31T07:11:50.280Z,10.38
2023-03-31T07:14:17.402Z,10.43
2023-03-31T07:16:44.340Z,10.48
2023-03-31T07:19:11.537Z,10.38
2023-03-31T07:21:38.295Z,9.80
2023-03-31T07:24:05.820Z,9.63
2023-03-31T07:26:32.719Z,10.52
2023-03-31T07:28:59.976Z,10.50
2023-03-31T07:31:26.835Z,9.68
2023-03-31T07:33:53.956Z,10.50
2023-03-31T07:36:20.927Z,9.63
2023-03-31T07:38:49.686Z,9.40
2023-03-31T07:41:20.524Z,8.48
2023-03-31T07:43:47.849Z,8.30
2023-03-31T07:46:22.873Z,8.88
2023-03-31T07:51:18.444Z,9.25
2023-03-31T07:53:46.005Z,8.75
2023-03-31T07:56:12.904Z,8.55
2023-03-31T07:58:40.003Z,10.25
2023-03-31T08:01:08.253Z,8.80
2023-03-31T08:03:35.571Z,7.72
2023-03-31T08:06:02.428Z,8.65
2023-03-31T08:08:29.545Z,7.97
2023-03-31T08:10:56.386Z,7.88
2023-03-31T08:13:23.517Z,8.00
2023-03-31T08:15:50.372Z,8.98
2023-03-31T08:18:17.636Z,8.75
2023-03-31T08:20:44.430Z,8.35
2023-03-31T08:23:12.151Z,7.57
2023-03-31T08:25:38.978Z,8.50
2023-03-31T08:28:06.949Z,9.20
2023-03-31T08:30:33.876Z,8.35
2023-03-31T08:33:00.992Z,8.02
2023-03-31T08:35:27.828Z,7.57
2023-03-31T08:37:54.948Z,7.75
2023-03-31T08:40:26.341Z,7.15
2023-03-31T08:42:55.566Z,7.88
2023-03-31T08:45:23.536Z,9.13
2023-03-31T08:47:58.619Z,7.18
2023-03-31T08:50:27.670Z,6.55
2023-03-31T08:53:04.075Z,7.82
2023-03-31T08:55:42.465Z,7.82
2023-03-31T08:58:15.948Z,6.93
2023-03-31T09:00:52.485Z,6.57
2023-03-31T09:03:26.115Z,6.93
2023-03-31T09:06:07.187Z,7.82
2023-03-31T09:08:35.805Z,7.82
2023-03-31T09:11:32.478Z,6.53
2023-03-31T09:14:18.466Z,6.57
2023-03-31T09:19:25.722Z,5.72
2023-03-31T09:21:53.308Z,6.35
2023-03-31T09:24:27.460Z,5.55
2023-03-31T09:27:07.620Z,6.75
2023-03-31T09:29:38.666Z,6.40
2023-03-31T09:32:18.103Z,5.20
2023-03-31T09:34:46.268Z,5.93
2023-03-31T09:37:13.155Z,5.35
2023-03-31T09:39:40.675Z,5.22
2023-03-31T09:42:07.489Z,4.97
2023-03-31T09:44:41.383Z,4.85
2023-03-31T09:47:12.985Z,5.35
2023-03-31T09:49:40.103Z,4.65
2023-03-31T09:52:35.260Z,4.70
2023-03-31T09:55:05.586Z,4.80
2023-03-31T09:57:39.094Z,5.50
2023-03-31T10:00:16.977Z,5.50
2023-03-31T10:02:50.640Z,6.28
2023-03-31T10:05:26.103Z,4.78
2023-03-31T10:08:14.304Z,5.40
2023-03-31T10:10:45.538Z,5.55
2023-03-31T10:13:14.520Z,5.13
2023-03-31T10:15:42.438Z,5.13
2023-03-31T10:18:16.689Z,5.03
2023-03-31T10:20:45.321Z,5.10
2023-03-31T10:23:29.772Z,4.40
2023-03-31T10:25:56.887Z,5.00
2023-03-31T10:28:23.691Z,5.78
2023-03-31T10:30:55.763Z,5.05
2023-03-31T10:33:25.155Z,4.75
2023-03-31T10:36:26.235Z,8.07
2023-03-31T10:38:53.298Z,6.25
2023-03-31T10:41:24.227Z,6.13
2023-03-31T10:43:55.735Z,6.40
2023-03-31T10:46:49.323Z,6.15
2023-03-31T10:49:22.315Z,5.40
2023-03-31T10:51:59.427Z,5.88
2023-03-31T10:54:26.719Z,5.95
2023-03-31T10:57:05.619Z,8.77
2023-03-31T10:59:48.490Z,7.55
2023-03-31T11:02:51.498Z,5.90
2023-03-31T11:05:39.672Z,6.45
2023-03-31T11:08:42.599Z,6.55
2023-03-31T11:11:25.340Z,4.63
2023-03-31T11:14:08.178Z,5.90
2023-03-31T11:16:58.977Z,5.28
2023-03-31T11:19:35.657Z,5.55
2023-03-31T11:22:26.638Z,4.35
2023-03-31T11:25:03.297Z,4.40
2023-03-31T11:27:51.072Z,4.05
2023-03-31T11:30:21.702Z,5.10
2023-03-31T11:33:21.070Z,4.85
2023-03-31T11:36:06.107Z,4.35
2023-03-31T11:38:53.770Z,5.00
2023-03-31T11:41:27.444Z,4.25
2023-03-31T11:44:02.558Z,3.85
2023-03-31T11:46:56.050Z,4.38
2023-03-31T11:49:30.442Z,3.25
2023-03-31T11:52:01.361Z,3.70
2023-03-31T11:54:34.196Z,3.05
2023-03-31T11:57:10.777Z,3.30
2023-03-31T11:59:37.597Z,4.57
2023-03-31T12:02:11.551Z,3.53
2023-03-31T12:04:40.395Z,2.85
2023-03-31T12:07:31.239Z,2.88
2023-03-31T12:10:05.606Z,3.30
2023-03-31T12:12:42.360Z,4.05
2023-03-31T12:15:27.924Z,2.78
2023-03-31T12:18:02.053Z,3.20
2023-03-31T12:20:40.747Z,2.97
2023-03-31T12:23:13.052Z,2.95
2023-03-31T12:25:52.611Z,2.78
2023-03-31T12:28:19.727Z,3.53
2023-03-31T12:30:46.695Z,3.40
2023-03-31T12:33:15.773Z,3.50
2023-03-31T12:35:52.955Z,4.60
2023-03-31T12:38:22.836Z,3.83
2023-03-31T12:41:04.660Z,2.90
2023-03-31T12:43:35.783Z,3.30
2023-03-31T12:46:36.837Z,4.18
2023-03-31T12:49:07.094Z,4.38
2023-03-31T12:51:44.227Z,4.38
2023-03-31T12:54:26.998Z,3.55
2023-03-31T12:57:00.014Z,4.47
2023-03-31T12:59:41.086Z,4.03
2023-03-31T13:02:14.994Z,4.38
2023-03-31T13:04:42.437Z,4.43
2023-03-31T13:07:29.046Z,4.13
2023-03-31T13:10:01.642Z,3.92
2023-03-31T13:12:28.710Z,4.57
2023-03-31T13:14:59.543Z,4.10
2023-03-31T13:17:31.612Z,4.35
2023-03-31T13:20:38.073Z,4.10
2023-03-31T13:23:04.882Z,4.55
2023-03-31T13:25:44.988Z,5.43
2023-03-31T13:28:39.224Z,6.22
2023-03-31T13:31:07.763Z,5.82
2023-03-31T13:33:41.208Z,5.70
2023-03-31T13:36:37.854Z,5.22
2023-03-31T13:39:32.451Z,5.95
2023-03-31T13:42:34.942Z,6.05
2023-03-31T13:45:32.492Z,4.95
2023-03-31T13:48:02.727Z,4.72
2023-03-31T13:50:41.712Z,4.65
2023-03-31T13:53:20.909Z,5.07
2023-03-31T13:55:53.502Z,4.88
2023-03-31T14:01:20.901Z,4.88
2023-03-31T14:04:15.569Z,4.87
2023-03-31T14:07:02.485Z,4.30
2023-03-31T14:09:34.338Z,4.38
2023-03-31T14:12:01.942Z,4.13
2023-03-31T14:14:29.953Z,5.03
2023-03-31T14:16:57.341Z,5.40
2023-03-31T14:19:30.852Z,5.30
2023-03-31T14:22:03.663Z,5.15
2023-03-31T14:24:45.117Z,5.18
2023-03-31T14:27:21.123Z,10.65
2023-03-31T14:29:51.636Z,7.15
2023-03-31T14:32:55.562Z,7.22
2023-03-31T14:35:31.873Z,6.38
2023-03-31T14:37:59.083Z,6.32
2023-03-31T14:40:26.537Z,6.13
2023-03-31T14:42:53.419Z,6.50
2023-03-31T14:45:25.617Z,5.93
2023-03-31T14:47:59.852Z,6.75
2023-03-31T14:50:32.679Z,6.93
2023-03-31T14:53:01.364Z,10.18
2023-03-31T14:55:44.155Z,7.38
2023-03-31T14:58:24.481Z,6.57
2023-03-31T15:03:18.665Z,7.00
2023-03-31T15:05:48.815Z,6.35
2023-03-31T15:08:18.727Z,6.75
2023-03-31T15:10:54.030Z,6.82
2023-03-31T15:13:25.673Z,6.32
2023-03-31T15:15:52.797Z,7.07
2023-03-31T15:18:19.558Z,6.85
2023-03-31T15:20:46.739Z,6.65
2023-03-31T15:23:30.791Z,6.88
2023-03-31T15:25:59.145Z,6.80
2023-03-31T15:28:27.589Z,5.53
2023-03-31T15:31:03.500Z,5.80
2023-03-31T15:33:41.501Z,7.70
2023-03-31T15:36:10.628Z,7.90
2023-03-31T15:38:37.421Z,6.20
2023-03-31T15:41:04.522Z,6.28
2023-03-31T15:43:45.229Z,6.10
2023-03-31T15:46:40.030Z,8.18
2023-03-31T15:49:21.070Z,7.20
2023-03-31T15:51:48.777Z,6.22
2023-03-31T15:54:40.974Z,6.90
2023-03-31T15:57:09.075Z,7.75
2023-03-31T15:59:55.779Z,7.47
2023-03-31T16:02:27.962Z,7.97
2023-03-31T16:04:56.979Z,8.38
2023-03-31T16:07:27.414Z,8.55
2023-03-31T16:09:57.379Z,7.50
2023-03-31T16:12:32.204Z,7.20
2023-03-31T16:15:05.894Z,7.20
2023-03-31T16:17:36.760Z,6.45
2023-03-31T16:20:07.570Z,7.82
2023-03-31T16:22:43.303Z,7.32
2023-03-31T16:25:21.366Z,7.25
2023-03-31T16:27:54.641Z,7.78
2023-03-31T16:30:23.722Z,8.20
2023-03-31T16:33:10.154Z,8.25
2023-03-31T16:35:38.615Z,9.23
2023-03-31T16:38:06.756Z,8.73
2023-03-31T16:40:38.632Z,8.63
2023-03-31T16:43:15.897Z,10.35
2023-03-31T16:45:52.917Z,10.48
2023-03-31T16:48:20.889Z,9.80
2023-03-31T16:50:49.066Z,8.85
2023-03-31T16:53:22.224Z,8.45
2023-03-31T16:55:49.359Z,8.57
2023-03-31T16:58:16.677Z,8.95
2023-03-31T17:00:43.694Z,9.40
2023-03-31T17:03:11.830Z,9.35
2023-03-31T17:05:43.493Z,10.82
2023-03-31T17:08:11.148Z,10.25
2023-03-31T17:10:38.832Z,11.35
2023-03-31T17:13:06.546Z,11.63
2023-03-31T17:15:36.436Z,11.27
2023-03-31T17:18:06.334Z,11.57
2023-03-31T17:20:34.263Z,12.75
2023-03-31T17:23:01.636Z,10.73
2023-03-31T17:25:28.565Z,11.25
2023-03-31T17:27:56.281Z,10.63
2023-03-31T17:30:23.289Z,9.98
2023-03-31T17:32:51.563Z,9.95
2023-03-31T17:35:22.632Z,9.57
2023-03-31T17:37:51.669Z,10.82
2023-03-31T17:40:18.452Z,9.23
2023-03-31T17:42:47.210Z,8.68
2023-03-31T17:45:14.338Z,9.20
2023-03-31T17:47:42.066Z,8.60
2023-03-31T17:50:09.403Z,9.13
2023-03-31T17:52:36.653Z,7.85
2023-03-31T17:55:04.336Z,8.27
2023-03-31T17:57:32.191Z,9.07
2023-03-31T17:59:59.195Z,8.23
2023-03-31T18:02:26.344Z,8.57
2023-03-31T18:04:53.476Z,8.48
2023-03-31T18:07:23.147Z,8.20
2023-03-31T18:09:49.947Z,8.15
2023-03-31T18:12:17.683Z,8.43
2023-03-31T18:14:44.654Z,7.97
2023-03-31T18:17:14.911Z,8.38
2023-03-31T18:19:42.883Z,8.35
2023-03-31T18:22:10.220Z,8.88
2023-03-31T18:24:38.477Z,9.60
2023-03-31T18:27:05.779Z,9.00
2023-03-31T18:29:32.776Z,9.55
2023-03-31T18:32:00.124Z,9.50
2023-03-31T18:34:27.293Z,9.38
2023-03-31T18:36:54.670Z,11.50
2023-03-31T18:39:22.159Z,11.68
2023-03-31T18:41:49.299Z,12.00
2023-03-31T18:44:17.470Z,12.88
2023-03-31T18:46:45.132Z,12.98
2023-03-31T18:49:12.085Z,13.90
2023-03-31T18:51:39.222Z,14.75
2023-03-31T18:54:06.262Z,15.30
2023-03-31T18:56:33.390Z,17.13
2023-03-31T18:59:00.191Z,16.75
2023-03-31T19:01:27.484Z,17.73
2023-03-31T19:03:54.463Z,19.77
2023-03-31T19:06:22.525Z,19.10
2023-03-31T19:08:49.488Z,17.73
2023-03-31T19:11:17.063Z,19.52
2023-03-31T19:13:44.009Z,19.45
2023-03-31T19:16:12.311Z,18.95
2023-03-31T19:18:39.535Z,18.40
2023-03-31T19:21:06.776Z,16.88
2023-03-31T19:23:34.206Z,18.27
2023-03-31T19:26:02.988Z,18.33
2023-03-31T19:28:30.556Z,17.08
2023-03-31T19:30:58.043Z,17.13
2023-03-31T19:33:25.552Z,16.48
2023-03-31T19:35:52.918Z,15.18
2023-03-31T19:38:21.632Z,15.80
2023-03-31T19:40:49.120Z,16.02
2023-03-31T19:43:23.310Z,16.05
2023-03-31T19:45:52.928Z,14.90
2023-03-31T19:48:20.118Z,14.52
2023-03-31T19:50:51.151Z,12.68
2023-03-31T19:53:18.558Z,11.80
2023-03-31T19:55:57.508Z,11.45
2023-03-31T20:02:53.369Z,7.57
2023-03-31T20:05:21.038Z,8.07
2023-03-31T20:07:48.076Z,6.57
2023-03-31T20:10:15.960Z,6.20
2023-03-31T20:12:43.273Z,6.47
2023-03-31T20:15:10.557Z,5.78
2023-03-31T20:17:38.659Z,5.60
2023-03-31T20:20:06.380Z,5.18
2023-03-31T20:22:33.313Z,5.05
2023-03-31T20:25:01.088Z,5.80
2023-03-31T20:27:28.066Z,5.65
2023-03-31T20:29:55.620Z,5.93
2023-03-31T20:32:24.166Z,5.32
2023-03-31T20:34:51.746Z,5.68
2023-03-31T20:37:19.070Z,5.35
2023-03-31T20:39:46.556Z,4.50
2023-03-31T20:42:13.360Z,4.25
2023-03-31T20:44:41.085Z,4.47
2023-03-31T20:47:08.350Z,3.78
2023-03-31T20:49:35.836Z,3.40
2023-03-31T20:52:02.713Z,2.83
2023-03-31T20:54:29.841Z,3.35
2023-03-31T20:56:56.718Z,3.00
2023-03-31T20:59:24.071Z,2.88
2023-03-31T21:01:50.863Z,2.22
2023-03-31T21:04:18.081Z,2.30
2023-03-31T21:06:46.448Z,2.25
2023-03-31T21:09:13.965Z,1.95
2023-03-31T21:11:40.913Z,2.20
2023-03-31T21:14:10.226Z,1.90
2023-03-31T21:16:37.515Z,1.60
2023-03-31T21:19:04.659Z,1.70
2023-03-31T21:21:31.608Z,2.00
2023-03-31T21:23:58.926Z,1.83
2023-03-31T21:26:25.907Z,1.80
2023-03-31T21:28:55.590Z,1.83
2023-03-31T21:31:24.256Z,1.88
2023-03-31T21:33:52.273Z,2.00
2023-03-31T21:36:22.446Z,1.67
2023-03-31T21:38:50.552Z,1.95
2023-03-31T21:41:19.129Z,2.25
2023-03-31T21:43:46.456Z,2.08
2023-03-31T21:46:20.792Z,1.80
2023-03-31T21:48:48.884Z,1.80
2023-03-31T21:51:17.069Z,1.70
2023-03-31T21:53:44.398Z,1.50
2023-03-31T21:56:11.226Z,1.80
2023-03-31T21:58:38.359Z,2.15
2023-03-31T22:01:05.348Z,1.60
2023-03-31T22:03:34.603Z,1.67
2023-03-31T22:06:03.484Z,2.28
2023-03-31T22:08:31.623Z,2.50
2023-03-31T22:11:00.344Z,2.50
2023-03-31T22:13:28.124Z,1.95
2023-03-31T22:15:54.943Z,1.42
2023-03-31T22:18:22.163Z,2.30
2023-03-31T22:20:49.188Z,2.00
2023-03-31T22:23:16.739Z,1.63
2023-03-31T22:25:43.688Z,2.10
2023-03-31T22:28:16.128Z,2.05
2023-03-31T22:30:42.965Z,2.65
2023-03-31T22:33:10.083Z,2.45
2023-03-31T22:35:37.048Z,2.03
2023-03-31T22:38:06.102Z,6.47
2023-03-31T22:40:34.636Z,9.48
2023-03-31T22:43:01.839Z,8.75
2023-03-31T22:45:28.614Z,8.98
2023-03-31T22:47:56.569Z,9.13
2023-03-31T22:50:23.848Z,9.15
2023-03-31T22:52:50.966Z,9.00
2023-03-31T22:55:17.770Z,8.48
2023-03-31T22:57:44.962Z,9.02
2023-03-31T23:00:12.870Z,8.90
2023-03-31T23:02:40.648Z,8.25
2023-03-31T23:05:08.004Z,6.93
2023-03-31T23:07:35.174Z,8.38
2023-03-31T23:10:02.230Z,7.07
2023-03-31T23:12:29.411Z,7.85
2023-03-31T23:14:56.427Z,7.53
2023-03-31T23:17:23.630Z,7.20
2023-03-31T23:19:50.534Z,6.68
2023-03-31T23:22:19.069Z,5.57
2023-03-31T23:24:46.615Z,6.50
2023-03-31T23:27:13.622Z,5.80
2023-03-31T23:29:41.427Z,7.13
2023-03-31T23:32:08.548Z,6.63
2023-03-31T23:34:35.413Z,7.50
2023-03-31T23:37:02.428Z,7.40
2023-03-31T23:39:29.285Z,6.70
2023-03-31T23:41:57.238Z,6.20
2023-03-31T23:44:23.970Z,6.60
2023-03-31T23:46:51.284Z,6.25
2023-03-31T23:49:18.113Z,5.65
2023-03-31T23:51:45.290Z,5.20
2023-03-31T23:54:12.310Z,5.53
2023-03-31T23:56:39.400Z,4.82
2023-03-31T23:59:06.507Z,4.07
